Inguadona, Minnesota
Current Conditions -  °F | °C
As of 9:16 AM on Friday 31 Oct 2014 (Local Time) from KXVG Reporting Station
Clear Clear  
Wind Chill: 27°   Ceiling: Unl
Heat Index: 27°   Visibility: 10mi
Dew Point: 18°   Wind: 3mph
Humidity: 69%   Direction: 60°ENE
Pressure: 30.57"   Gusts: NA
Location:  47.0632°N, 94.1534°W
Report Text: KXVG 311416Z AUTO 06003KT 10SM CLR M03/M08 A3057 RMK AO2
Loading
Personal Weather Stations






























Interactive Weather Map
Tropical Storm Tracking
New forecast layout! Learn more

10-Day Weather Forecast

Advertisements
Track Severe Weather on mobile